sensor_id;sensor_type;location;lat;lon;timestamp;temperature;humidity
46159;DHT22;31888;44.512;26.104;2023-08-07T00:00:47;21.70;98.90
46159;DHT22;31888;44.512;26.104;2023-08-07T00:03:11;21.60;98.60
46159;DHT22;31888;44.512;26.104;2023-08-07T00:05:44;21.60;98.20
46159;DHT22;31888;44.512;26.104;2023-08-07T00:08:08;21.70;98.20
46159;DHT22;31888;44.512;26.104;2023-08-07T00:10:33;21.70;98.10
46159;DHT22;31888;44.512;26.104;2023-08-07T00:12:57;21.60;98.20
46159;DHT22;31888;44.512;26.104;2023-08-07T00:15:21;21.60;98.40
46159;DHT22;31888;44.512;26.104;2023-08-07T00:17:45;21.50;98.30
46159;DHT22;31888;44.512;26.104;2023-08-07T00:20:09;21.40;98.70
46159;DHT22;31888;44.512;26.104;2023-08-07T00:22:33;21.40;98.60
46159;DHT22;31888;44.512;26.104;2023-08-07T00:24:57;21.30;98.50
46159;DHT22;31888;44.512;26.104;2023-08-07T00:27:22;21.30;98.80
46159;DHT22;31888;44.512;26.104;2023-08-07T00:29:46;21.20;99.20
46159;DHT22;31888;44.512;26.104;2023-08-07T00:32:10;21.10;99.00
46159;DHT22;31888;44.512;26.104;2023-08-07T00:34:36;21.10;99.20
46159;DHT22;31888;44.512;26.104;2023-08-07T00:36:59;21.00;99.30
46159;DHT22;31888;44.512;26.104;2023-08-07T00:39:24;21.00;99.60
46159;DHT22;31888;44.512;26.104;2023-08-07T00:41:48;20.90;99.80
46159;DHT22;31888;44.512;26.104;2023-08-07T00:44:13;20.80;99.90
46159;DHT22;31888;44.512;26.104;2023-08-07T00:46:37;20.80;99.90
46159;DHT22;31888;44.512;26.104;2023-08-07T00:49:02;20.80;99.90
46159;DHT22;31888;44.512;26.104;2023-08-07T00:51:26;20.80;99.90
46159;DHT22;31888;44.512;26.104;2023-08-07T00:53:50;20.70;99.90
46159;DHT22;31888;44.512;26.104;2023-08-07T00:56:15;20.70;99.90
46159;DHT22;31888;44.512;26.104;2023-08-07T00:58:39;20.70;99.90
46159;DHT22;31888;44.512;26.104;2023-08-07T01:01:05;20.60;99.90
46159;DHT22;31888;44.512;26.104;2023-08-07T01:03:29;20.60;99.90
46159;DHT22;31888;44.512;26.104;2023-08-07T01:05:54;20.60;99.90
46159;DHT22;31888;44.512;26.104;2023-08-07T01:08:17;20.50;99.90
46159;DHT22;31888;44.512;26.104;2023-08-07T01:10:53;20.50;99.90
46159;DHT22;31888;44.512;26.104;2023-08-07T01:13:24;20.50;99.90
46159;DHT22;31888;44.512;26.104;2023-08-07T01:15:55;20.40;99.90
46159;DHT22;31888;44.512;26.104;2023-08-07T01:18:22;20.30;99.90
46159;DHT22;31888;44.512;26.104;2023-08-07T01:20:46;20.30;99.90
46159;DHT22;31888;44.512;26.104;2023-08-07T01:23:11;20.20;99.90
46159;DHT22;31888;44.512;26.104;2023-08-07T01:25:35;20.20;99.90
46159;DHT22;31888;44.512;26.104;2023-08-07T01:28:06;20.10;99.90
46159;DHT22;31888;44.512;26.104;2023-08-07T01:30:36;20.10;99.90
46159;DHT22;31888;44.512;26.104;2023-08-07T01:33:08;20.00;99.90
46159;DHT22;31888;44.512;26.104;2023-08-07T01:35:34;20.00;99.90
46159;DHT22;31888;44.512;26.104;2023-08-07T01:37:59;19.90;99.90
46159;DHT22;31888;44.512;26.104;2023-08-07T01:40:25;19.90;99.90
46159;DHT22;31888;44.512;26.104;2023-08-07T01:42:49;19.80;99.90
46159;DHT22;31888;44.512;26.104;2023-08-07T01:45:13;19.80;99.90
46159;DHT22;31888;44.512;26.104;2023-08-07T01:47:37;19.80;99.90
46159;DHT22;31888;44.512;26.104;2023-08-07T01:50:01;19.70;99.90
46159;DHT22;31888;44.512;26.104;2023-08-07T01:52:25;19.70;99.90
46159;DHT22;31888;44.512;26.104;2023-08-07T01:54:49;19.70;99.90
46159;DHT22;31888;44.512;26.104;2023-08-07T01:57:14;19.70;99.90
46159;DHT22;31888;44.512;26.104;2023-08-07T01:59:38;19.60;99.90
46159;DHT22;31888;44.512;26.104;2023-08-07T02:02:02;19.70;99.90
46159;DHT22;31888;44.512;26.104;2023-08-07T02:04:26;19.60;99.90
46159;DHT22;31888;44.512;26.104;2023-08-07T02:06:50;19.60;99.90
46159;DHT22;31888;44.512;26.104;2023-08-07T02:09:16;19.60;99.90
46159;DHT22;31888;44.512;26.104;2023-08-07T02:11:40;19.60;99.90
46159;DHT22;31888;44.512;26.104;2023-08-07T02:14:06;19.50;99.90
46159;DHT22;31888;44.512;26.104;2023-08-07T02:16:30;19.50;99.90
46159;DHT22;31888;44.512;26.104;2023-08-07T02:18:54;19.50;99.90
46159;DHT22;31888;44.512;26.104;2023-08-07T02:21:18;19.40;99.90
46159;DHT22;31888;44.512;26.104;2023-08-07T02:23:42;19.40;99.90
46159;DHT22;31888;44.512;26.104;2023-08-07T02:26:06;19.40;99.90
46159;DHT22;31888;44.512;26.104;2023-08-07T02:28:30;19.30;99.90
46159;DHT22;31888;44.512;26.104;2023-08-07T02:30:57;19.30;99.90
46159;DHT22;31888;44.512;26.104;2023-08-07T02:33:22;19.20;99.90
46159;DHT22;31888;44.512;26.104;2023-08-07T02:35:46;19.20;99.90
46159;DHT22;31888;44.512;26.104;2023-08-07T02:38:09;19.20;99.90
46159;DHT22;31888;44.512;26.104;2023-08-07T02:40:33;19.10;99.90
46159;DHT22;31888;44.512;26.104;2023-08-07T02:42:57;19.20;99.90
46159;DHT22;31888;44.512;26.104;2023-08-07T02:45:20;19.20;99.90
46159;DHT22;31888;44.512;26.104;2023-08-07T02:47:46;19.20;99.90
46159;DHT22;31888;44.512;26.104;2023-08-07T02:50:10;19.10;99.90
46159;DHT22;31888;44.512;26.104;2023-08-07T02:52:33;19.10;99.90
46159;DHT22;31888;44.512;26.104;2023-08-07T02:54:57;19.10;99.90
46159;DHT22;31888;44.512;26.104;2023-08-07T02:57:21;19.10;99.90
46159;DHT22;31888;44.512;26.104;2023-08-07T02:59:45;19.00;99.90
46159;DHT22;31888;44.512;26.104;2023-08-07T03:02:09;19.00;99.90
46159;DHT22;31888;44.512;26.104;2023-08-07T03:04:34;19.00;99.90
46159;DHT22;31888;44.512;26.104;2023-08-07T03:06:59;18.90;99.90
46159;DHT22;31888;44.512;26.104;2023-08-07T03:09:23;18.90;99.90
46159;DHT22;31888;44.512;26.104;2023-08-07T03:11:47;18.90;99.90
46159;DHT22;31888;44.512;26.104;2023-08-07T03:14:11;18.80;99.90
46159;DHT22;31888;44.512;26.104;2023-08-07T03:16:35;18.90;99.90
46159;DHT22;31888;44.512;26.104;2023-08-07T03:18:59;18.90;99.90
46159;DHT22;31888;44.512;26.104;2023-08-07T03:21:24;18.80;99.90
46159;DHT22;31888;44.512;26.104;2023-08-07T03:23:48;18.90;99.90
46159;DHT22;31888;44.512;26.104;2023-08-07T03:26:12;18.80;99.90
46159;DHT22;31888;44.512;26.104;2023-08-07T03:28:43;18.90;99.90
46159;DHT22;31888;44.512;26.104;2023-08-07T03:31:08;19.00;99.90
46159;DHT22;31888;44.512;26.104;2023-08-07T03:33:32;19.10;99.90
46159;DHT22;31888;44.512;26.104;2023-08-07T03:35:57;19.30;99.90
46159;DHT22;31888;44.512;26.104;2023-08-07T03:38:22;19.40;99.90
46159;DHT22;31888;44.512;26.104;2023-08-07T03:40:48;19.60;99.90
46159;DHT22;31888;44.512;26.104;2023-08-07T03:43:12;19.70;99.90
46159;DHT22;31888;44.512;26.104;2023-08-07T03:45:36;19.80;99.90
46159;DHT22;31888;44.512;26.104;2023-08-07T03:48:01;19.90;99.90
46159;DHT22;31888;44.512;26.104;2023-08-07T03:50:25;20.00;99.90
46159;DHT22;31888;44.512;26.104;2023-08-07T03:52:49;20.00;99.90
46159;DHT22;31888;44.512;26.104;2023-08-07T03:55:14;20.40;99.90
46159;DHT22;31888;44.512;26.104;2023-08-07T03:57:38;20.60;99.90
46159;DHT22;31888;44.512;26.104;2023-08-07T04:00:02;21.00;99.90
46159;DHT22;31888;44.512;26.104;2023-08-07T04:02:34;21.30;99.90
46159;DHT22;31888;44.512;26.104;2023-08-07T04:04:58;21.70;99.70
46159;DHT22;31888;44.512;26.104;2023-08-07T04:07:22;21.80;99.10
46159;DHT22;31888;44.512;26.104;2023-08-07T04:09:46;22.30;98.70
46159;DHT22;31888;44.512;26.104;2023-08-07T04:12:11;22.60;98.00
46159;DHT22;31888;44.512;26.104;2023-08-07T04:14:35;23.10;97.00
46159;DHT22;31888;44.512;26.104;2023-08-07T04:16:59;23.50;96.40
46159;DHT22;31888;44.512;26.104;2023-08-07T04:19:23;23.80;95.90
46159;DHT22;31888;44.512;26.104;2023-08-07T04:21:47;24.20;95.30
46159;DHT22;31888;44.512;26.104;2023-08-07T04:24:10;24.60;94.40
46159;DHT22;31888;44.512;26.104;2023-08-07T04:26:34;25.10;93.70
46159;DHT22;31888;44.512;26.104;2023-08-07T04:29:00;25.40;93.30
46159;DHT22;31888;44.512;26.104;2023-08-07T04:31:24;25.80;92.60
46159;DHT22;31888;44.512;26.104;2023-08-07T04:33:48;26.30;91.70
46159;DHT22;31888;44.512;26.104;2023-08-07T04:36:11;26.30;91.00
46159;DHT22;31888;44.512;26.104;2023-08-07T04:38:35;26.80;90.90
46159;DHT22;31888;44.512;26.104;2023-08-07T04:40:59;27.10;90.50
46159;DHT22;31888;44.512;26.104;2023-08-07T04:43:23;27.40;89.40
46159;DHT22;31888;44.512;26.104;2023-08-07T04:45:48;27.90;88.30
46159;DHT22;31888;44.512;26.104;2023-08-07T04:48:12;27.80;87.80
46159;DHT22;31888;44.512;26.104;2023-08-07T04:50:36;27.80;87.60
46159;DHT22;31888;44.512;26.104;2023-08-07T04:52:59;28.00;87.30
46159;DHT22;31888;44.512;26.104;2023-08-07T04:55:23;28.40;85.90
46159;DHT22;31888;44.512;26.104;2023-08-07T04:57:47;28.10;86.20
46159;DHT22;31888;44.512;26.104;2023-08-07T05:00:13;28.50;85.10
46159;DHT22;31888;44.512;26.104;2023-08-07T05:02:39;28.70;84.50
46159;DHT22;31888;44.512;26.104;2023-08-07T05:05:03;29.30;83.10
46159;DHT22;31888;44.512;26.104;2023-08-07T05:07:27;29.80;81.50
46159;DHT22;31888;44.512;26.104;2023-08-07T05:09:51;29.60;81.30
46159;DHT22;31888;44.512;26.104;2023-08-07T05:12:14;29.90;81.00
46159;DHT22;31888;44.512;26.104;2023-08-07T05:14:38;30.10;79.90
46159;DHT22;31888;44.512;26.104;2023-08-07T05:17:02;30.30;78.90
46159;DHT22;31888;44.512;26.104;2023-08-07T05:19:28;30.50;78.60
46159;DHT22;31888;44.512;26.104;2023-08-07T05:21:51;30.50;78.30
46159;DHT22;31888;44.512;26.104;2023-08-07T05:24:16;30.60;77.30
46159;DHT22;31888;44.512;26.104;2023-08-07T05:26:39;30.90;76.90
46159;DHT22;31888;44.512;26.104;2023-08-07T05:29:03;31.10;76.20
46159;DHT22;31888;44.512;26.104;2023-08-07T05:31:29;31.00;75.90
46159;DHT22;31888;44.512;26.104;2023-08-07T05:33:53;31.30;75.30
46159;DHT22;31888;44.512;26.104;2023-08-07T05:36:18;31.20;75.50
46159;DHT22;31888;44.512;26.104;2023-08-07T05:38:42;31.30;74.70
46159;DHT22;31888;44.512;26.104;2023-08-07T05:41:06;31.80;74.40
46159;DHT22;31888;44.512;26.104;2023-08-07T05:43:29;32.70;72.70
46159;DHT22;31888;44.512;26.104;2023-08-07T05:45:53;33.20;71.20
46159;DHT22;31888;44.512;26.104;2023-08-07T05:48:17;33.50;70.60
46159;DHT22;31888;44.512;26.104;2023-08-07T05:50:40;33.50;70.30
46159;DHT22;31888;44.512;26.104;2023-08-07T05:53:06;34.10;69.20
46159;DHT22;31888;44.512;26.104;2023-08-07T05:55:29;34.30;68.00
46159;DHT22;31888;44.512;26.104;2023-08-07T05:57:53;34.70;67.00
46159;DHT22;31888;44.512;26.104;2023-08-07T06:00:17;35.10;66.50
46159;DHT22;31888;44.512;26.104;2023-08-07T06:02:42;35.20;65.90
46159;DHT22;31888;44.512;26.104;2023-08-07T06:05:06;35.40;65.20
46159;DHT22;31888;44.512;26.104;2023-08-07T06:07:31;36.00;64.60
46159;DHT22;31888;44.512;26.104;2023-08-07T06:09:57;35.90;63.90
46159;DHT22;31888;44.512;26.104;2023-08-07T06:12:20;36.40;62.70
46159;DHT22;31888;44.512;26.104;2023-08-07T06:14:44;36.40;62.60
46159;DHT22;31888;44.512;26.104;2023-08-07T06:17:08;36.90;61.90
46159;DHT22;31888;44.512;26.104;2023-08-07T06:19:32;36.80;61.20
46159;DHT22;31888;44.512;26.104;2023-08-07T06:21:55;37.30;60.80
46159;DHT22;31888;44.512;26.104;2023-08-07T06:24:20;37.00;60.50
46159;DHT22;31888;44.512;26.104;2023-08-07T06:26:45;36.30;60.30
46159;DHT22;31888;44.512;26.104;2023-08-07T06:29:09;36.50;60.60
46159;DHT22;31888;44.512;26.104;2023-08-07T06:31:33;36.90;60.20
46159;DHT22;31888;44.512;26.104;2023-08-07T06:33:57;37.80;59.40
46159;DHT22;31888;44.512;26.104;2023-08-07T06:36:22;38.00;58.90
46159;DHT22;31888;44.512;26.104;2023-08-07T06:38:46;38.20;58.20
46159;DHT22;31888;44.512;26.104;2023-08-07T06:41:10;37.60;57.80
46159;DHT22;31888;44.512;26.104;2023-08-07T06:43:35;38.30;57.50
46159;DHT22;31888;44.512;26.104;2023-08-07T06:45:59;38.80;57.10
46159;DHT22;31888;44.512;26.104;2023-08-07T06:48:23;38.60;56.70
46159;DHT22;31888;44.512;26.104;2023-08-07T06:50:47;38.60;56.60
46159;DHT22;31888;44.512;26.104;2023-08-07T06:53:11;38.90;57.60
46159;DHT22;31888;44.512;26.104;2023-08-07T06:55:34;39.10;56.10
46159;DHT22;31888;44.512;26.104;2023-08-07T06:57:58;39.40;55.50
46159;DHT22;31888;44.512;26.104;2023-08-07T07:00:23;39.50;54.80
46159;DHT22;31888;44.512;26.104;2023-08-07T07:02:47;39.30;54.80
46159;DHT22;31888;44.512;26.104;2023-08-07T07:05:11;39.50;54.40
46159;DHT22;31888;44.512;26.104;2023-08-07T07:07:35;40.30;53.90
46159;DHT22;31888;44.512;26.104;2023-08-07T07:09:59;40.20;53.70
46159;DHT22;31888;44.512;26.104;2023-08-07T07:12:23;40.40;53.30
46159;DHT22;31888;44.512;26.104;2023-08-07T07:14:47;40.40;52.80
46159;DHT22;31888;44.512;26.104;2023-08-07T07:17:12;40.50;52.30
46159;DHT22;31888;44.512;26.104;2023-08-07T07:19:36;40.80;52.30
46159;DHT22;31888;44.512;26.104;2023-08-07T07:22:00;40.70;52.10
46159;DHT22;31888;44.512;26.104;2023-08-07T07:24:24;41.00;51.70
46159;DHT22;31888;44.512;26.104;2023-08-07T07:26:47;40.50;51.90
46159;DHT22;31888;44.512;26.104;2023-08-07T07:29:11;41.00;51.10
46159;DHT22;31888;44.512;26.104;2023-08-07T07:31:35;40.80;51.30
46159;DHT22;31888;44.512;26.104;2023-08-07T07:34:01;41.00;51.20
46159;DHT22;31888;44.512;26.104;2023-08-07T07:36:25;41.30;49.90
46159;DHT22;31888;44.512;26.104;2023-08-07T07:38:49;41.40;49.80
46159;DHT22;31888;44.512;26.104;2023-08-07T07:41:13;41.70;49.20
46159;DHT22;31888;44.512;26.104;2023-08-07T07:43:36;41.60;49.10
46159;DHT22;31888;44.512;26.104;2023-08-07T07:46:00;41.60;49.20
46159;DHT22;31888;44.512;26.104;2023-08-07T07:48:24;42.00;48.90
46159;DHT22;31888;44.512;26.104;2023-08-07T07:50:49;42.30;48.50
46159;DHT22;31888;44.512;26.104;2023-08-07T07:53:15;42.30;48.40
46159;DHT22;31888;44.512;26.104;2023-08-07T07:55:39;42.40;47.80
46159;DHT22;31888;44.512;26.104;2023-08-07T07:58:02;42.30;47.80
46159;DHT22;31888;44.512;26.104;2023-08-07T08:00:26;42.60;47.90
46159;DHT22;31888;44.512;26.104;2023-08-07T08:02:50;41.90;47.80
46159;DHT22;31888;44.512;26.104;2023-08-07T08:05:14;42.10;47.90
46159;DHT22;31888;44.512;26.104;2023-08-07T08:07:39;40.90;48.40
46159;DHT22;31888;44.512;26.104;2023-08-07T08:10:04;40.80;48.60
46159;DHT22;31888;44.512;26.104;2023-08-07T08:12:30;40.00;48.90
46159;DHT22;31888;44.512;26.104;2023-08-07T08:14:54;39.80;49.10
46159;DHT22;31888;44.512;26.104;2023-08-07T08:17:18;38.90;49.90
46159;DHT22;31888;44.512;26.104;2023-08-07T08:19:42;37.70;50.60
46159;DHT22;31888;44.512;26.104;2023-08-07T08:22:12;36.20;51.70
46159;DHT22;31888;44.512;26.104;2023-08-07T08:24:37;35.80;53.00
46159;DHT22;31888;44.512;26.104;2023-08-07T08:27:01;35.10;53.20
46159;DHT22;31888;44.512;26.104;2023-08-07T08:29:25;34.80;53.10
46159;DHT22;31888;44.512;26.104;2023-08-07T08:31:50;34.20;54.00
46159;DHT22;31888;44.512;26.104;2023-08-07T08:34:17;33.50;54.50
46159;DHT22;31888;44.512;26.104;2023-08-07T08:36:40;33.00;55.00
46159;DHT22;31888;44.512;26.104;2023-08-07T08:39:04;32.70;55.50
46159;DHT22;31888;44.512;26.104;2023-08-07T08:41:30;32.20;56.80
46159;DHT22;31888;44.512;26.104;2023-08-07T08:43:55;32.10;57.30
46159;DHT22;31888;44.512;26.104;2023-08-07T08:46:20;31.80;57.30
46159;DHT22;31888;44.512;26.104;2023-08-07T08:48:50;31.80;57.70
46159;DHT22;31888;44.512;26.104;2023-08-07T08:51:14;31.60;57.00
46159;DHT22;31888;44.512;26.104;2023-08-07T08:53:40;31.70;57.30
46159;DHT22;31888;44.512;26.104;2023-08-07T08:56:04;31.20;58.20
46159;DHT22;31888;44.512;26.104;2023-08-07T08:58:31;31.20;58.10
46159;DHT22;31888;44.512;26.104;2023-08-07T09:00:55;31.10;58.70
46159;DHT22;31888;44.512;26.104;2023-08-07T09:03:19;31.00;59.10
46159;DHT22;31888;44.512;26.104;2023-08-07T09:05:43;30.70;58.50
46159;DHT22;31888;44.512;26.104;2023-08-07T09:08:09;30.70;58.80
46159;DHT22;31888;44.512;26.104;2023-08-07T09:10:34;30.60;58.70
46159;DHT22;31888;44.512;26.104;2023-08-07T09:13:00;30.40;58.70
46159;DHT22;31888;44.512;26.104;2023-08-07T09:15:27;30.30;59.30
46159;DHT22;31888;44.512;26.104;2023-08-07T09:17:54;30.20;58.80
46159;DHT22;31888;44.512;26.104;2023-08-07T09:20:18;30.30;59.00
46159;DHT22;31888;44.512;26.104;2023-08-07T09:22:43;30.20;58.00
46159;DHT22;31888;44.512;26.104;2023-08-07T09:25:08;30.30;58.30
46159;DHT22;31888;44.512;26.104;2023-08-07T09:27:33;30.40;58.10
46159;DHT22;31888;44.512;26.104;2023-08-07T09:29:59;30.20;57.90
46159;DHT22;31888;44.512;26.104;2023-08-07T09:32:24;30.10;57.50
46159;DHT22;31888;44.512;26.104;2023-08-07T09:34:49;30.00;57.90
46159;DHT22;31888;44.512;26.104;2023-08-07T09:37:14;29.80;58.40
46159;DHT22;31888;44.512;26.104;2023-08-07T09:39:38;29.80;57.80
46159;DHT22;31888;44.512;26.104;2023-08-07T09:42:02;29.80;58.80
46159;DHT22;31888;44.512;26.104;2023-08-07T09:44:35;29.80;58.00
46159;DHT22;31888;44.512;26.104;2023-08-07T09:46:59;29.90;58.80
46159;DHT22;31888;44.512;26.104;2023-08-07T09:49:32;29.80;58.50
46159;DHT22;31888;44.512;26.104;2023-08-07T09:51:56;29.70;59.60
46159;DHT22;31888;44.512;26.104;2023-08-07T09:54:20;29.80;58.70
46159;DHT22;31888;44.512;26.104;2023-08-07T09:56:44;29.80;58.00
46159;DHT22;31888;44.512;26.104;2023-08-07T09:59:10;29.90;57.90
46159;DHT22;31888;44.512;26.104;2023-08-07T10:01:36;30.10;58.30
46159;DHT22;31888;44.512;26.104;2023-08-07T10:04:01;30.10;57.70
46159;DHT22;31888;44.512;26.104;2023-08-07T10:06:27;30.10;57.70
46159;DHT22;31888;44.512;26.104;2023-08-07T10:08:51;30.00;57.90
46159;DHT22;31888;44.512;26.104;2023-08-07T10:11:16;29.90;58.30
46159;DHT22;31888;44.512;26.104;2023-08-07T10:13:40;29.90;58.50
46159;DHT22;31888;44.512;26.104;2023-08-07T10:16:04;29.80;58.40
46159;DHT22;31888;44.512;26.104;2023-08-07T10:18:29;29.80;58.70
46159;DHT22;31888;44.512;26.104;2023-08-07T10:20:52;29.70;57.60
46159;DHT22;31888;44.512;26.104;2023-08-07T10:23:18;29.80;58.50
46159;DHT22;31888;44.512;26.104;2023-08-07T10:25:43;29.80;58.60
46159;DHT22;31888;44.512;26.104;2023-08-07T10:28:10;29.80;57.90
46159;DHT22;31888;44.512;26.104;2023-08-07T10:30:35;29.80;58.20
46159;DHT22;31888;44.512;26.104;2023-08-07T10:32:59;29.80;58.80
46159;DHT22;31888;44.512;26.104;2023-08-07T10:35:25;29.70;59.70
46159;DHT22;31888;44.512;26.104;2023-08-07T10:37:51;29.70;59.60
46159;DHT22;31888;44.512;26.104;2023-08-07T10:40:16;29.60;60.10
46159;DHT22;31888;44.512;26.104;2023-08-07T10:43:12;29.60;59.30
46159;DHT22;31888;44.512;26.104;2023-08-07T10:45:36;29.40;60.40
46159;DHT22;31888;44.512;26.104;2023-08-07T10:48:06;29.50;60.60
46159;DHT22;31888;44.512;26.104;2023-08-07T10:50:32;29.50;61.50
46159;DHT22;31888;44.512;26.104;2023-08-07T10:52:56;29.30;61.00
46159;DHT22;31888;44.512;26.104;2023-08-07T10:55:21;29.30;60.70
46159;DHT22;31888;44.512;26.104;2023-08-07T10:57:47;29.20;60.00
46159;DHT22;31888;44.512;26.104;2023-08-07T11:00:12;29.20;60.40
46159;DHT22;31888;44.512;26.104;2023-08-07T11:02:37;29.20;61.40
46159;DHT22;31888;44.512;26.104;2023-08-07T11:05:03;29.10;61.20
46159;DHT22;31888;44.512;26.104;2023-08-07T11:07:29;29.10;61.60
46159;DHT22;31888;44.512;26.104;2023-08-07T11:09:53;29.20;61.00
46159;DHT22;31888;44.512;26.104;2023-08-07T11:12:19;29.30;60.20
46159;DHT22;31888;44.512;26.104;2023-08-07T11:14:43;29.40;60.50
46159;DHT22;31888;44.512;26.104;2023-08-07T11:17:06;29.40;60.70
46159;DHT22;31888;44.512;26.104;2023-08-07T11:19:31;29.30;60.90
46159;DHT22;31888;44.512;26.104;2023-08-07T11:21:55;29.40;60.10
46159;DHT22;31888;44.512;26.104;2023-08-07T11:24:21;29.20;59.90
46159;DHT22;31888;44.512;26.104;2023-08-07T11:26:45;29.20;59.40
46159;DHT22;31888;44.512;26.104;2023-08-07T11:29:10;29.00;59.90
46159;DHT22;31888;44.512;26.104;2023-08-07T11:31:34;29.10;59.40
46159;DHT22;31888;44.512;26.104;2023-08-07T11:33:59;29.10;58.30
46159;DHT22;31888;44.512;26.104;2023-08-07T11:36:25;29.10;59.10
46159;DHT22;31888;44.512;26.104;2023-08-07T11:38:49;29.10;60.30
46159;DHT22;31888;44.512;26.104;2023-08-07T11:41:14;29.10;60.40
46159;DHT22;31888;44.512;26.104;2023-08-07T11:43:38;29.10;60.10
46159;DHT22;31888;44.512;26.104;2023-08-07T11:46:05;29.10;59.80
46159;DHT22;31888;44.512;26.104;2023-08-07T11:48:31;29.10;60.10
46159;DHT22;31888;44.512;26.104;2023-08-07T11:50:56;29.10;60.20
46159;DHT22;31888;44.512;26.104;2023-08-07T11:53:20;29.10;59.30
46159;DHT22;31888;44.512;26.104;2023-08-07T11:55:51;29.00;59.50
46159;DHT22;31888;44.512;26.104;2023-08-07T11:58:16;29.10;60.20
46159;DHT22;31888;44.512;26.104;2023-08-07T12:00:43;29.10;59.10
46159;DHT22;31888;44.512;26.104;2023-08-07T12:03:26;29.20;59.60
46159;DHT22;31888;44.512;26.104;2023-08-07T12:05:51;29.20;59.20
46159;DHT22;31888;44.512;26.104;2023-08-07T12:08:14;29.30;58.70
46159;DHT22;31888;44.512;26.104;2023-08-07T12:10:38;29.30;58.20
46159;DHT22;31888;44.512;26.104;2023-08-07T12:13:02;29.30;58.30
46159;DHT22;31888;44.512;26.104;2023-08-07T12:15:28;29.40;58.80
46159;DHT22;31888;44.512;26.104;2023-08-07T12:18:00;29.50;58.90
46159;DHT22;31888;44.512;26.104;2023-08-07T12:20:27;29.40;58.90
46159;DHT22;31888;44.512;26.104;2023-08-07T12:22:51;29.30;59.30
46159;DHT22;31888;44.512;26.104;2023-08-07T12:25:15;29.20;59.60
46159;DHT22;31888;44.512;26.104;2023-08-07T12:27:38;29.10;60.20
46159;DHT22;31888;44.512;26.104;2023-08-07T12:30:02;29.20;60.60
46159;DHT22;31888;44.512;26.104;2023-08-07T12:32:26;29.20;58.10
46159;DHT22;31888;44.512;26.104;2023-08-07T12:34:50;29.30;58.10
46159;DHT22;31888;44.512;26.104;2023-08-07T12:37:20;29.30;58.20
46159;DHT22;31888;44.512;26.104;2023-08-07T12:39:45;29.40;58.60
46159;DHT22;31888;44.512;26.104;2023-08-07T12:42:11;29.50;58.40
46159;DHT22;31888;44.512;26.104;2023-08-07T12:44:38;29.50;57.50
46159;DHT22;31888;44.512;26.104;2023-08-07T12:47:02;29.50;56.50
46159;DHT22;31888;44.512;26.104;2023-08-07T12:49:26;29.50;56.70
46159;DHT22;31888;44.512;26.104;2023-08-07T12:51:50;29.40;56.90
46159;DHT22;31888;44.512;26.104;2023-08-07T12:54:15;29.40;57.20
46159;DHT22;31888;44.512;26.104;2023-08-07T12:56:39;29.40;58.00
46159;DHT22;31888;44.512;26.104;2023-08-07T12:59:03;29.30;58.00
46159;DHT22;31888;44.512;26.104;2023-08-07T13:01:26;29.40;58.50
46159;DHT22;31888;44.512;26.104;2023-08-07T13:03:50;29.40;57.70
46159;DHT22;31888;44.512;26.104;2023-08-07T13:06:14;29.30;57.60
46159;DHT22;31888;44.512;26.104;2023-08-07T13:08:38;29.30;58.50
46159;DHT22;31888;44.512;26.104;2023-08-07T13:11:04;29.40;59.00
46159;DHT22;31888;44.512;26.104;2023-08-07T13:13:28;29.40;59.50
46159;DHT22;31888;44.512;26.104;2023-08-07T13:15:53;29.40;59.00
46159;DHT22;31888;44.512;26.104;2023-08-07T13:18:17;29.40;58.80
46159;DHT22;31888;44.512;26.104;2023-08-07T13:20:41;29.40;58.60
46159;DHT22;31888;44.512;26.104;2023-08-07T13:23:04;29.40;59.40
46159;DHT22;31888;44.512;26.104;2023-08-07T13:25:29;29.30;59.20
46159;DHT22;31888;44.512;26.104;2023-08-07T13:27:54;29.30;59.00
46159;DHT22;31888;44.512;26.104;2023-08-07T13:30:18;29.30;59.30
46159;DHT22;31888;44.512;26.104;2023-08-07T13:32:42;29.20;58.60
46159;DHT22;31888;44.512;26.104;2023-08-07T13:35:07;29.20;58.70
46159;DHT22;31888;44.512;26.104;2023-08-07T13:37:31;29.20;59.20
46159;DHT22;31888;44.512;26.104;2023-08-07T13:39:56;29.20;59.30
46159;DHT22;31888;44.512;26.104;2023-08-07T13:42:19;29.20;59.10
46159;DHT22;31888;44.512;26.104;2023-08-07T13:44:45;29.30;59.00
46159;DHT22;31888;44.512;26.104;2023-08-07T13:47:09;29.20;57.80
46159;DHT22;31888;44.512;26.104;2023-08-07T13:49:34;29.20;58.10
46159;DHT22;31888;44.512;26.104;2023-08-07T13:51:58;29.20;58.20
46159;DHT22;31888;44.512;26.104;2023-08-07T13:54:22;29.20;58.40
46159;DHT22;31888;44.512;26.104;2023-08-07T13:56:46;29.20;59.30
46159;DHT22;31888;44.512;26.104;2023-08-07T13:59:09;29.20;59.10
46159;DHT22;31888;44.512;26.104;2023-08-07T14:01:35;29.10;59.10
46159;DHT22;31888;44.512;26.104;2023-08-07T14:03:59;29.20;59.00
46159;DHT22;31888;44.512;26.104;2023-08-07T14:06:23;29.20;58.50
46159;DHT22;31888;44.512;26.104;2023-08-07T14:08:47;29.10;58.60
46159;DHT22;31888;44.512;26.104;2023-08-07T14:11:10;29.10;59.40
46159;DHT22;31888;44.512;26.104;2023-08-07T14:13:36;29.20;59.10
46159;DHT22;31888;44.512;26.104;2023-08-07T14:16:00;29.20;58.80
46159;DHT22;31888;44.512;26.104;2023-08-07T14:18:25;29.10;59.40
46159;DHT22;31888;44.512;26.104;2023-08-07T14:20:49;29.10;59.40
46159;DHT22;31888;44.512;26.104;2023-08-07T14:23:24;29.10;59.30
46159;DHT22;31888;44.512;26.104;2023-08-07T14:25:51;29.10;60.00
46159;DHT22;31888;44.512;26.104;2023-08-07T14:28:15;29.10;59.70
46159;DHT22;31888;44.512;26.104;2023-08-07T14:30:39;29.10;59.10
46159;DHT22;31888;44.512;26.104;2023-08-07T14:33:03;29.00;58.80
46159;DHT22;31888;44.512;26.104;2023-08-07T14:35:28;29.00;58.20
46159;DHT22;31888;44.512;26.104;2023-08-07T14:37:52;29.10;58.20
46159;DHT22;31888;44.512;26.104;2023-08-07T14:40:16;29.00;58.20
46159;DHT22;31888;44.512;26.104;2023-08-07T14:42:40;29.00;58.30
46159;DHT22;31888;44.512;26.104;2023-08-07T14:45:04;28.90;57.90
46159;DHT22;31888;44.512;26.104;2023-08-07T14:47:28;28.90;58.30
46159;DHT22;31888;44.512;26.104;2023-08-07T14:49:52;28.80;58.30
46159;DHT22;31888;44.512;26.104;2023-08-07T14:52:18;28.80;58.90
46159;DHT22;31888;44.512;26.104;2023-08-07T14:54:42;28.80;57.70
46159;DHT22;31888;44.512;26.104;2023-08-07T14:57:05;28.70;57.90
46159;DHT22;31888;44.512;26.104;2023-08-07T14:59:29;28.70;58.60